sensor_id;sensor_type;location;lat;lon;timestamp;P1;durP1;ratioP1;P2;durP2;ratioP2
78053;SDS011;67726;45.636;11.752;2023-07-24T00:01:32;19.17;;;9.87;;
78053;SDS011;67726;45.636;11.752;2023-07-24T00:03:58;20.42;;;10.52;;
78053;SDS011;67726;45.636;11.752;2023-07-24T00:06:24;17.57;;;10.13;;
78053;SDS011;67726;45.636;11.752;2023-07-24T00:08:49;20.02;;;10.18;;
78053;SDS011;67726;45.636;11.752;2023-07-24T00:11:15;15.90;;;10.37;;
78053;SDS011;67726;45.636;11.752;2023-07-24T00:13:41;16.52;;;10.00;;
78053;SDS011;67726;45.636;11.752;2023-07-24T00:16:09;16.80;;;9.63;;
78053;SDS011;67726;45.636;11.752;2023-07-24T00:18:35;17.52;;;10.45;;
78053;SDS011;67726;45.636;11.752;2023-07-24T00:21:01;19.88;;;10.82;;
78053;SDS011;67726;45.636;11.752;2023-07-24T00:23:27;21.03;;;10.17;;
78053;SDS011;67726;45.636;11.752;2023-07-24T00:25:52;17.03;;;10.67;;
78053;SDS011;67726;45.636;11.752;2023-07-24T00:28:19;20.27;;;11.03;;
78053;SDS011;67726;45.636;11.752;2023-07-24T00:30:44;16.95;;;9.25;;
78053;SDS011;67726;45.636;11.752;2023-07-24T00:33:11;16.20;;;9.97;;
78053;SDS011;67726;45.636;11.752;2023-07-24T00:35:36;16.35;;;9.60;;
78053;SDS011;67726;45.636;11.752;2023-07-24T00:38:02;18.33;;;10.40;;
78053;SDS011;67726;45.636;11.752;2023-07-24T00:40:28;16.75;;;10.60;;
78053;SDS011;67726;45.636;11.752;2023-07-24T00:42:53;17.57;;;11.00;;
78053;SDS011;67726;45.636;11.752;2023-07-24T00:45:19;19.92;;;11.32;;
78053;SDS011;67726;45.636;11.752;2023-07-24T00:47:46;19.03;;;11.23;;
78053;SDS011;67726;45.636;11.752;2023-07-24T00:50:12;20.17;;;11.27;;
78053;SDS011;67726;45.636;11.752;2023-07-24T00:52:38;16.92;;;9.70;;
78053;SDS011;67726;45.636;11.752;2023-07-24T00:55:05;19.25;;;11.30;;
78053;SDS011;67726;45.636;11.752;2023-07-24T00:57:32;17.23;;;11.50;;
78053;SDS011;67726;45.636;11.752;2023-07-24T00:59:58;17.20;;;11.50;;
78053;SDS011;67726;45.636;11.752;2023-07-24T01:02:25;21.02;;;11.98;;
78053;SDS011;67726;45.636;11.752;2023-07-24T01:04:50;16.42;;;10.50;;
78053;SDS011;67726;45.636;11.752;2023-07-24T01:07:16;18.97;;;11.20;;
78053;SDS011;67726;45.636;11.752;2023-07-24T01:09:42;18.58;;;10.95;;
78053;SDS011;67726;45.636;11.752;2023-07-24T01:12:45;16.08;;;9.80;;
78053;SDS011;67726;45.636;11.752;2023-07-24T01:17:55;17.45;;;9.98;;
78053;SDS011;67726;45.636;11.752;2023-07-24T01:20:26;17.23;;;9.80;;
78053;SDS011;67726;45.636;11.752;2023-07-24T01:25:59;18.20;;;9.88;;
78053;SDS011;67726;45.636;11.752;2023-07-24T01:28:27;19.67;;;9.57;;
78053;SDS011;67726;45.636;11.752;2023-07-24T01:30:53;18.67;;;10.00;;
78053;SDS011;67726;45.636;11.752;2023-07-24T01:33:19;19.27;;;10.98;;
78053;SDS011;67726;45.636;11.752;2023-07-24T01:35:45;14.98;;;9.80;;
78053;SDS011;67726;45.636;11.752;2023-07-24T01:38:15;19.60;;;11.27;;
78053;SDS011;67726;45.636;11.752;2023-07-24T01:40:42;21.03;;;10.47;;
78053;SDS011;67726;45.636;11.752;2023-07-24T01:43:08;16.25;;;9.80;;
78053;SDS011;67726;45.636;11.752;2023-07-24T01:45:35;20.05;;;10.63;;
78053;SDS011;67726;45.636;11.752;2023-07-24T01:48:01;19.13;;;10.63;;
78053;SDS011;67726;45.636;11.752;2023-07-24T01:50:29;18.33;;;11.77;;
78053;SDS011;67726;45.636;11.752;2023-07-24T01:52:54;22.90;;;11.10;;
78053;SDS011;67726;45.636;11.752;2023-07-24T01:55:20;18.85;;;11.35;;
78053;SDS011;67726;45.636;11.752;2023-07-24T01:57:46;25.30;;;11.33;;
78053;SDS011;67726;45.636;11.752;2023-07-24T02:00:12;18.15;;;10.98;;
78053;SDS011;67726;45.636;11.752;2023-07-24T02:02:37;20.07;;;11.73;;
78053;SDS011;67726;45.636;11.752;2023-07-24T02:05:03;18.95;;;11.93;;
78053;SDS011;67726;45.636;11.752;2023-07-24T02:07:29;20.93;;;10.40;;
78053;SDS011;67726;45.636;11.752;2023-07-24T02:09:55;20.63;;;12.45;;
78053;SDS011;67726;45.636;11.752;2023-07-24T02:12:20;19.20;;;11.50;;
78053;SDS011;67726;45.636;11.752;2023-07-24T02:14:46;20.48;;;11.60;;
78053;SDS011;67726;45.636;11.752;2023-07-24T02:17:16;19.80;;;11.27;;
78053;SDS011;67726;45.636;11.752;2023-07-24T02:19:42;19.73;;;12.27;;
78053;SDS011;67726;45.636;11.752;2023-07-24T02:22:08;20.38;;;11.80;;
78053;SDS011;67726;45.636;11.752;2023-07-24T02:24:34;19.33;;;10.83;;
78053;SDS011;67726;45.636;11.752;2023-07-24T02:27:00;18.27;;;10.32;;
78053;SDS011;67726;45.636;11.752;2023-07-24T02:29:25;20.23;;;10.93;;
78053;SDS011;67726;45.636;11.752;2023-07-24T02:31:52;22.10;;;11.03;;
78053;SDS011;67726;45.636;11.752;2023-07-24T02:34:19;21.40;;;11.07;;
78053;SDS011;67726;45.636;11.752;2023-07-24T02:36:49;17.85;;;9.95;;
78053;SDS011;67726;45.636;11.752;2023-07-24T02:39:15;19.27;;;10.57;;
78053;SDS011;67726;45.636;11.752;2023-07-24T02:41:41;18.60;;;9.93;;
78053;SDS011;67726;45.636;11.752;2023-07-24T02:44:07;16.93;;;10.00;;
78053;SDS011;67726;45.636;11.752;2023-07-24T02:46:32;17.80;;;10.18;;
78053;SDS011;67726;45.636;11.752;2023-07-24T02:48:58;18.50;;;9.63;;
78053;SDS011;67726;45.636;11.752;2023-07-24T02:51:24;16.73;;;9.55;;
78053;SDS011;67726;45.636;11.752;2023-07-24T02:53:49;17.77;;;10.00;;
78053;SDS011;67726;45.636;11.752;2023-07-24T02:56:15;18.33;;;10.27;;
78053;SDS011;67726;45.636;11.752;2023-07-24T02:58:41;19.70;;;9.93;;
78053;SDS011;67726;45.636;11.752;2023-07-24T03:01:07;19.53;;;10.03;;
78053;SDS011;67726;45.636;11.752;2023-07-24T03:03:33;18.15;;;9.50;;
78053;SDS011;67726;45.636;11.752;2023-07-24T03:05:59;17.55;;;9.63;;
78053;SDS011;67726;45.636;11.752;2023-07-24T03:08:25;22.25;;;10.00;;
78053;SDS011;67726;45.636;11.752;2023-07-24T03:10:51;17.93;;;9.93;;
78053;SDS011;67726;45.636;11.752;2023-07-24T03:13:16;16.85;;;9.50;;
78053;SDS011;67726;45.636;11.752;2023-07-24T03:15:42;19.93;;;10.20;;
78053;SDS011;67726;45.636;11.752;2023-07-24T03:18:08;18.00;;;10.18;;
78053;SDS011;67726;45.636;11.752;2023-07-24T03:20:33;21.17;;;10.33;;
78053;SDS011;67726;45.636;11.752;2023-07-24T03:22:59;19.98;;;10.00;;
78053;SDS011;67726;45.636;11.752;2023-07-24T03:25:24;17.80;;;10.37;;
78053;SDS011;67726;45.636;11.752;2023-07-24T03:27:50;19.38;;;10.57;;
78053;SDS011;67726;45.636;11.752;2023-07-24T03:30:16;17.30;;;10.37;;
78053;SDS011;67726;45.636;11.752;2023-07-24T03:32:41;17.90;;;10.47;;
78053;SDS011;67726;45.636;11.752;2023-07-24T03:35:07;18.35;;;11.00;;
78053;SDS011;67726;45.636;11.752;2023-07-24T03:37:34;19.50;;;10.98;;
78053;SDS011;67726;45.636;11.752;2023-07-24T03:40:00;18.77;;;11.30;;
78053;SDS011;67726;45.636;11.752;2023-07-24T03:42:27;18.92;;;10.48;;
78053;SDS011;67726;45.636;11.752;2023-07-24T03:44:54;18.50;;;10.60;;
78053;SDS011;67726;45.636;11.752;2023-07-24T03:47:21;19.65;;;11.05;;
78053;SDS011;67726;45.636;11.752;2023-07-24T03:49:47;19.00;;;11.03;;
78053;SDS011;67726;45.636;11.752;2023-07-24T03:52:12;20.67;;;11.25;;
78053;SDS011;67726;45.636;11.752;2023-07-24T03:54:38;18.73;;;11.00;;
78053;SDS011;67726;45.636;11.752;2023-07-24T03:57:04;20.07;;;10.93;;
78053;SDS011;67726;45.636;11.752;2023-07-24T03:59:30;18.75;;;11.88;;
78053;SDS011;67726;45.636;11.752;2023-07-24T04:01:56;21.63;;;11.17;;
78053;SDS011;67726;45.636;11.752;2023-07-24T04:04:22;18.77;;;10.32;;
78053;SDS011;67726;45.636;11.752;2023-07-24T04:06:47;22.25;;;11.82;;
78053;SDS011;67726;45.636;11.752;2023-07-24T04:09:13;19.83;;;11.10;;
78053;SDS011;67726;45.636;11.752;2023-07-24T04:11:44;19.77;;;11.20;;
78053;SDS011;67726;45.636;11.752;2023-07-24T04:14:10;18.92;;;11.38;;
78053;SDS011;67726;45.636;11.752;2023-07-24T04:16:36;19.13;;;11.48;;
78053;SDS011;67726;45.636;11.752;2023-07-24T04:19:02;19.50;;;11.50;;
78053;SDS011;67726;45.636;11.752;2023-07-24T04:21:27;17.85;;;11.40;;
78053;SDS011;67726;45.636;11.752;2023-07-24T04:23:53;19.23;;;10.65;;
78053;SDS011;67726;45.636;11.752;2023-07-24T04:26:19;17.90;;;10.90;;
78053;SDS011;67726;45.636;11.752;2023-07-24T04:28:45;18.50;;;10.35;;
78053;SDS011;67726;45.636;11.752;2023-07-24T04:31:10;16.83;;;10.17;;
78053;SDS011;67726;45.636;11.752;2023-07-24T04:33:36;17.88;;;10.35;;
78053;SDS011;67726;45.636;11.752;2023-07-24T04:36:02;17.83;;;11.37;;
78053;SDS011;67726;45.636;11.752;2023-07-24T04:38:27;20.23;;;10.93;;
78053;SDS011;67726;45.636;11.752;2023-07-24T04:40:53;17.97;;;10.40;;
78053;SDS011;67726;45.636;11.752;2023-07-24T04:43:19;22.40;;;11.88;;
78053;SDS011;67726;45.636;11.752;2023-07-24T04:45:44;18.27;;;10.53;;
78053;SDS011;67726;45.636;11.752;2023-07-24T04:48:10;22.17;;;10.93;;
78053;SDS011;67726;45.636;11.752;2023-07-24T04:50:36;19.27;;;10.50;;
78053;SDS011;67726;45.636;11.752;2023-07-24T04:53:01;18.55;;;10.85;;
78053;SDS011;67726;45.636;11.752;2023-07-24T04:55:27;17.70;;;10.00;;
78053;SDS011;67726;45.636;11.752;2023-07-24T04:57:53;19.23;;;10.67;;
78053;SDS011;67726;45.636;11.752;2023-07-24T05:00:18;18.60;;;10.67;;
78053;SDS011;67726;45.636;11.752;2023-07-24T05:02:44;18.17;;;11.45;;
78053;SDS011;67726;45.636;11.752;2023-07-24T05:05:10;17.17;;;10.70;;
78053;SDS011;67726;45.636;11.752;2023-07-24T05:07:35;20.63;;;11.27;;
78053;SDS011;67726;45.636;11.752;2023-07-24T05:10:01;18.67;;;10.57;;
78053;SDS011;67726;45.636;11.752;2023-07-24T05:12:27;17.70;;;10.25;;
78053;SDS011;67726;45.636;11.752;2023-07-24T05:14:52;21.67;;;11.83;;
78053;SDS011;67726;45.636;11.752;2023-07-24T05:17:18;22.43;;;11.57;;
78053;SDS011;67726;45.636;11.752;2023-07-24T05:19:44;17.40;;;10.60;;
78053;SDS011;67726;45.636;11.752;2023-07-24T05:22:09;20.93;;;11.20;;
78053;SDS011;67726;45.636;11.752;2023-07-24T05:24:36;21.83;;;11.93;;
78053;SDS011;67726;45.636;11.752;2023-07-24T05:27:02;21.17;;;11.40;;
78053;SDS011;67726;45.636;11.752;2023-07-24T05:29:31;18.90;;;10.90;;
78053;SDS011;67726;45.636;11.752;2023-07-24T05:31:57;20.52;;;11.85;;
78053;SDS011;67726;45.636;11.752;2023-07-24T05:34:24;18.15;;;11.18;;
78053;SDS011;67726;45.636;11.752;2023-07-24T05:36:50;16.17;;;10.27;;
78053;SDS011;67726;45.636;11.752;2023-07-24T05:39:16;20.83;;;10.77;;
78053;SDS011;67726;45.636;11.752;2023-07-24T05:41:41;18.23;;;10.18;;
78053;SDS011;67726;45.636;11.752;2023-07-24T05:44:07;21.23;;;10.60;;
78053;SDS011;67726;45.636;11.752;2023-07-24T05:46:33;19.48;;;10.60;;
78053;SDS011;67726;45.636;11.752;2023-07-24T05:48:58;18.97;;;10.13;;
78053;SDS011;67726;45.636;11.752;2023-07-24T05:51:26;14.48;;;9.20;;
78053;SDS011;67726;45.636;11.752;2023-07-24T05:53:52;19.35;;;9.57;;
78053;SDS011;67726;45.636;11.752;2023-07-24T05:56:18;17.13;;;10.03;;
78053;SDS011;67726;45.636;11.752;2023-07-24T05:58:44;17.10;;;9.48;;
78053;SDS011;67726;45.636;11.752;2023-07-24T06:01:09;19.97;;;9.60;;
78053;SDS011;67726;45.636;11.752;2023-07-24T06:03:35;18.35;;;9.50;;
78053;SDS011;67726;45.636;11.752;2023-07-24T06:06:01;19.08;;;10.13;;
78053;SDS011;67726;45.636;11.752;2023-07-24T06:08:27;19.77;;;10.83;;
78053;SDS011;67726;45.636;11.752;2023-07-24T06:10:53;17.38;;;10.63;;
78053;SDS011;67726;45.636;11.752;2023-07-24T06:13:19;21.20;;;11.18;;
78053;SDS011;67726;45.636;11.752;2023-07-24T06:15:48;19.87;;;9.67;;
78053;SDS011;67726;45.636;11.752;2023-07-24T06:18:14;18.30;;;9.55;;
78053;SDS011;67726;45.636;11.752;2023-07-24T06:20:40;19.45;;;9.60;;
78053;SDS011;67726;45.636;11.752;2023-07-24T06:23:05;18.33;;;8.47;;
78053;SDS011;67726;45.636;11.752;2023-07-24T06:25:31;16.98;;;8.60;;
78053;SDS011;67726;45.636;11.752;2023-07-24T06:27:57;16.20;;;9.00;;
78053;SDS011;67726;45.636;11.752;2023-07-24T06:30:23;17.15;;;9.70;;
78053;SDS011;67726;45.636;11.752;2023-07-24T06:32:49;17.85;;;9.52;;
78053;SDS011;67726;45.636;11.752;2023-07-24T06:35:15;16.60;;;9.48;;
78053;SDS011;67726;45.636;11.752;2023-07-24T06:37:41;18.03;;;9.63;;
78053;SDS011;67726;45.636;11.752;2023-07-24T06:40:07;18.50;;;8.80;;
78053;SDS011;67726;45.636;11.752;2023-07-24T06:42:33;19.50;;;9.60;;
78053;SDS011;67726;45.636;11.752;2023-07-24T06:44:59;16.35;;;9.35;;
78053;SDS011;67726;45.636;11.752;2023-07-24T06:47:25;18.08;;;9.48;;
78053;SDS011;67726;45.636;11.752;2023-07-24T06:49:51;15.33;;;9.13;;
78053;SDS011;67726;45.636;11.752;2023-07-24T06:52:16;19.42;;;9.80;;
78053;SDS011;67726;45.636;11.752;2023-07-24T06:54:42;20.33;;;9.60;;
78053;SDS011;67726;45.636;11.752;2023-07-24T06:57:08;20.25;;;8.93;;
78053;SDS011;67726;45.636;11.752;2023-07-24T06:59:33;19.30;;;8.88;;
78053;SDS011;67726;45.636;11.752;2023-07-24T07:01:59;17.17;;;9.10;;
78053;SDS011;67726;45.636;11.752;2023-07-24T07:04:25;15.65;;;8.07;;
78053;SDS011;67726;45.636;11.752;2023-07-24T07:06:50;15.93;;;8.63;;
78053;SDS011;67726;45.636;11.752;2023-07-24T07:09:16;15.53;;;8.13;;
78053;SDS011;67726;45.636;11.752;2023-07-24T07:11:42;14.98;;;8.60;;
78053;SDS011;67726;45.636;11.752;2023-07-24T07:14:10;18.65;;;8.80;;
78053;SDS011;67726;45.636;11.752;2023-07-24T07:16:36;15.80;;;8.70;;
78053;SDS011;67726;45.636;11.752;2023-07-24T07:19:02;17.25;;;8.63;;
78053;SDS011;67726;45.636;11.752;2023-07-24T07:21:27;17.17;;;8.30;;
78053;SDS011;67726;45.636;11.752;2023-07-24T07:23:53;14.65;;;7.97;;
78053;SDS011;67726;45.636;11.752;2023-07-24T07:26:19;15.52;;;7.57;;
78053;SDS011;67726;45.636;11.752;2023-07-24T07:28:45;18.17;;;8.38;;
78053;SDS011;67726;45.636;11.752;2023-07-24T07:31:11;12.80;;;7.20;;
78053;SDS011;67726;45.636;11.752;2023-07-24T07:33:37;15.05;;;7.50;;
78053;SDS011;67726;45.636;11.752;2023-07-24T07:36:02;14.43;;;6.80;;
78053;SDS011;67726;45.636;11.752;2023-07-24T07:38:31;11.93;;;6.70;;
78053;SDS011;67726;45.636;11.752;2023-07-24T07:40:57;15.57;;;6.50;;
78053;SDS011;67726;45.636;11.752;2023-07-24T07:43:23;12.93;;;6.40;;
78053;SDS011;67726;45.636;11.752;2023-07-24T07:45:48;12.75;;;6.57;;
78053;SDS011;67726;45.636;11.752;2023-07-24T07:48:14;14.60;;;6.37;;
78053;SDS011;67726;45.636;11.752;2023-07-24T07:50:40;15.15;;;7.15;;
78053;SDS011;67726;45.636;11.752;2023-07-24T07:53:05;14.03;;;6.10;;
78053;SDS011;67726;45.636;11.752;2023-07-24T07:55:31;14.30;;;6.88;;
78053;SDS011;67726;45.636;11.752;2023-07-24T07:57:57;12.90;;;6.45;;
78053;SDS011;67726;45.636;11.752;2023-07-24T08:00:23;13.80;;;6.10;;
78053;SDS011;67726;45.636;11.752;2023-07-24T08:02:48;14.53;;;6.60;;
78053;SDS011;67726;45.636;11.752;2023-07-24T08:05:14;11.55;;;5.68;;
78053;SDS011;67726;45.636;11.752;2023-07-24T08:07:40;12.68;;;6.68;;
78053;SDS011;67726;45.636;11.752;2023-07-24T08:10:06;14.32;;;7.35;;
78053;SDS011;67726;45.636;11.752;2023-07-24T08:12:32;13.60;;;6.73;;
78053;SDS011;67726;45.636;11.752;2023-07-24T08:14:58;18.13;;;7.57;;
78053;SDS011;67726;45.636;11.752;2023-07-24T08:17:24;15.73;;;8.60;;
78053;SDS011;67726;45.636;11.752;2023-07-24T08:19:51;16.42;;;8.10;;
78053;SDS011;67726;45.636;11.752;2023-07-24T08:22:17;15.67;;;7.43;;
78053;SDS011;67726;45.636;11.752;2023-07-24T08:24:44;15.23;;;7.20;;
78053;SDS011;67726;45.636;11.752;2023-07-24T08:27:10;13.70;;;7.22;;
78053;SDS011;67726;45.636;11.752;2023-07-24T08:29:36;14.43;;;6.33;;
78053;SDS011;67726;45.636;11.752;2023-07-24T08:32:03;12.60;;;6.40;;
78053;SDS011;67726;45.636;11.752;2023-07-24T08:34:29;13.10;;;6.38;;
78053;SDS011;67726;45.636;11.752;2023-07-24T08:36:55;13.00;;;7.20;;
78053;SDS011;67726;45.636;11.752;2023-07-24T08:39:20;15.85;;;7.45;;
78053;SDS011;67726;45.636;11.752;2023-07-24T08:41:46;11.67;;;6.87;;
78053;SDS011;67726;45.636;11.752;2023-07-24T08:44:11;15.90;;;8.17;;
78053;SDS011;67726;45.636;11.752;2023-07-24T08:46:38;13.65;;;7.63;;
78053;SDS011;67726;45.636;11.752;2023-07-24T08:49:06;14.18;;;6.95;;
78053;SDS011;67726;45.636;11.752;2023-07-24T08:51:36;15.18;;;6.68;;
78053;SDS011;67726;45.636;11.752;2023-07-24T08:54:03;16.52;;;7.85;;
78053;SDS011;67726;45.636;11.752;2023-07-24T08:56:29;15.60;;;7.83;;
78053;SDS011;67726;45.636;11.752;2023-07-24T08:58:56;16.00;;;7.90;;
78053;SDS011;67726;45.636;11.752;2023-07-24T09:01:21;15.55;;;7.53;;
78053;SDS011;67726;45.636;11.752;2023-07-24T09:03:47;17.33;;;7.88;;
78053;SDS011;67726;45.636;11.752;2023-07-24T09:06:13;17.97;;;9.10;;
78053;SDS011;67726;45.636;11.752;2023-07-24T09:08:39;13.50;;;7.70;;
78053;SDS011;67726;45.636;11.752;2023-07-24T09:11:06;14.87;;;7.83;;
78053;SDS011;67726;45.636;11.752;2023-07-24T09:13:34;15.65;;;7.45;;
78053;SDS011;67726;45.636;11.752;2023-07-24T09:16:01;14.90;;;7.47;;
78053;SDS011;67726;45.636;11.752;2023-07-24T09:18:27;15.27;;;7.10;;
78053;SDS011;67726;45.636;11.752;2023-07-24T09:21:04;18.23;;;7.20;;
78053;SDS011;67726;45.636;11.752;2023-07-24T09:23:30;15.47;;;6.33;;
78053;SDS011;67726;45.636;11.752;2023-07-24T09:25:56;14.57;;;6.05;;
78053;SDS011;67726;45.636;11.752;2023-07-24T09:28:21;15.33;;;6.30;;
78053;SDS011;67726;45.636;11.752;2023-07-24T09:30:54;14.90;;;6.53;;
78053;SDS011;67726;45.636;11.752;2023-07-24T09:33:34;14.05;;;7.20;;
78053;SDS011;67726;45.636;11.752;2023-07-24T09:36:01;15.27;;;6.67;;
78053;SDS011;67726;45.636;11.752;2023-07-24T09:38:28;13.30;;;6.35;;
78053;SDS011;67726;45.636;11.752;2023-07-24T09:40:55;11.85;;;6.15;;
78053;SDS011;67726;45.636;11.752;2023-07-24T09:45:52;13.70;;;6.88;;
78053;SDS011;67726;45.636;11.752;2023-07-24T09:48:19;17.33;;;6.63;;
78053;SDS011;67726;45.636;11.752;2023-07-24T09:50:46;13.23;;;6.25;;
78053;SDS011;67726;45.636;11.752;2023-07-24T09:53:21;15.20;;;6.90;;
78053;SDS011;67726;45.636;11.752;2023-07-24T09:55:49;15.45;;;6.90;;
78053;SDS011;67726;45.636;11.752;2023-07-24T09:58:27;12.85;;;6.03;;
78053;SDS011;67726;45.636;11.752;2023-07-24T10:00:54;15.23;;;6.30;;
78053;SDS011;67726;45.636;11.752;2023-07-24T10:03:21;15.55;;;6.97;;
78053;SDS011;67726;45.636;11.752;2023-07-24T10:05:47;19.77;;;7.03;;
78053;SDS011;67726;45.636;11.752;2023-07-24T10:08:15;17.98;;;6.70;;
78053;SDS011;67726;45.636;11.752;2023-07-24T10:10:42;16.73;;;6.60;;
78053;SDS011;67726;45.636;11.752;2023-07-24T10:13:09;14.53;;;6.40;;
78053;SDS011;67726;45.636;11.752;2023-07-24T10:15:39;20.75;;;6.80;;
78053;SDS011;67726;45.636;11.752;2023-07-24T10:18:09;12.95;;;6.53;;
78053;SDS011;67726;45.636;11.752;2023-07-24T10:20:36;15.23;;;6.80;;
78053;SDS011;67726;45.636;11.752;2023-07-24T10:23:07;13.90;;;6.68;;
78053;SDS011;67726;45.636;11.752;2023-07-24T10:25:34;13.93;;;6.10;;
78053;SDS011;67726;45.636;11.752;2023-07-24T10:28:05;12.07;;;6.68;;
78053;SDS011;67726;45.636;11.752;2023-07-24T10:30:36;12.32;;;6.90;;
78053;SDS011;67726;45.636;11.752;2023-07-24T10:33:09;16.08;;;6.65;;
78053;SDS011;67726;45.636;11.752;2023-07-24T10:35:41;13.20;;;7.32;;
78053;SDS011;67726;45.636;11.752;2023-07-24T10:38:13;14.10;;;7.27;;
78053;SDS011;67726;45.636;11.752;2023-07-24T10:40:43;13.88;;;6.93;;
78053;SDS011;67726;45.636;11.752;2023-07-24T10:43:19;13.02;;;6.75;;
78053;SDS011;67726;45.636;11.752;2023-07-24T10:48:16;17.10;;;7.80;;
78053;SDS011;67726;45.636;11.752;2023-07-24T10:50:43;13.33;;;7.60;;
78053;SDS011;67726;45.636;11.752;2023-07-24T10:53:10;15.70;;;7.90;;
78053;SDS011;67726;45.636;11.752;2023-07-24T10:55:44;16.35;;;7.70;;
78053;SDS011;67726;45.636;11.752;2023-07-24T10:58:12;16.88;;;8.27;;
78053;SDS011;67726;45.636;11.752;2023-07-24T11:00:42;18.90;;;10.05;;
78053;SDS011;67726;45.636;11.752;2023-07-24T11:03:12;16.60;;;9.07;;
78053;SDS011;67726;45.636;11.752;2023-07-24T11:05:42;18.15;;;9.20;;
78053;SDS011;67726;45.636;11.752;2023-07-24T11:08:12;17.30;;;8.45;;
78053;SDS011;67726;45.636;11.752;2023-07-24T11:10:44;16.70;;;8.38;;
78053;SDS011;67726;45.636;11.752;2023-07-24T11:13:29;18.23;;;7.75;;
78053;SDS011;67726;45.636;11.752;2023-07-24T11:15:56;16.20;;;7.57;;
78053;SDS011;67726;45.636;11.752;2023-07-24T11:18:29;15.88;;;7.47;;
78053;SDS011;67726;45.636;11.752;2023-07-24T11:20:55;14.57;;;8.40;;
78053;SDS011;67726;45.636;11.752;2023-07-24T11:23:22;14.85;;;8.80;;
78053;SDS011;67726;45.636;11.752;2023-07-24T11:25:52;17.63;;;8.93;;
78053;SDS011;67726;45.636;11.752;2023-07-24T11:28:19;15.52;;;8.70;;
78053;SDS011;67726;45.636;11.752;2023-07-24T11:30:44;18.88;;;8.90;;
78053;SDS011;67726;45.636;11.752;2023-07-24T11:33:11;18.80;;;8.87;;
78053;SDS011;67726;45.636;11.752;2023-07-24T11:35:39;13.05;;;7.30;;
78053;SDS011;67726;45.636;11.752;2023-07-24T11:38:05;14.85;;;7.82;;
78053;SDS011;67726;45.636;11.752;2023-07-24T11:40:34;15.98;;;7.75;;
78053;SDS011;67726;45.636;11.752;2023-07-24T11:43:02;14.18;;;7.47;;
78053;SDS011;67726;45.636;11.752;2023-07-24T11:45:29;13.87;;;6.73;;
78053;SDS011;67726;45.636;11.752;2023-07-24T11:47:55;14.55;;;7.40;;
78053;SDS011;67726;45.636;11.752;2023-07-24T11:50:21;15.18;;;7.35;;
78053;SDS011;67726;45.636;11.752;2023-07-24T11:52:49;15.43;;;7.47;;
78053;SDS011;67726;45.636;11.752;2023-07-24T11:55:18;12.60;;;6.75;;
78053;SDS011;67726;45.636;11.752;2023-07-24T11:57:55;15.30;;;7.63;;
78053;SDS011;67726;45.636;11.752;2023-07-24T12:00:22;14.15;;;7.55;;
78053;SDS011;67726;45.636;11.752;2023-07-24T12:02:48;18.48;;;8.10;;
78053;SDS011;67726;45.636;11.752;2023-07-24T12:05:15;16.55;;;7.35;;
78053;SDS011;67726;45.636;11.752;2023-07-24T12:07:42;15.20;;;7.70;;
78053;SDS011;67726;45.636;11.752;2023-07-24T12:10:10;13.80;;;7.53;;
78053;SDS011;67726;45.636;11.752;2023-07-24T12:15:13;14.13;;;7.38;;
78053;SDS011;67726;45.636;11.752;2023-07-24T12:17:40;14.03;;;7.00;;
78053;SDS011;67726;45.636;11.752;2023-07-24T12:20:07;14.40;;;7.35;;
78053;SDS011;67726;45.636;11.752;2023-07-24T12:22:35;15.43;;;7.32;;
78053;SDS011;67726;45.636;11.752;2023-07-24T12:25:01;17.75;;;7.60;;
78053;SDS011;67726;45.636;11.752;2023-07-24T12:27:28;15.68;;;7.35;;
78053;SDS011;67726;45.636;11.752;2023-07-24T12:29:53;16.17;;;7.77;;
78053;SDS011;67726;45.636;11.752;2023-07-24T12:32:19;15.23;;;7.27;;
78053;SDS011;67726;45.636;11.752;2023-07-24T12:34:48;13.30;;;6.78;;
78053;SDS011;67726;45.636;11.752;2023-07-24T12:37:15;15.02;;;7.00;;
78053;SDS011;67726;45.636;11.752;2023-07-24T12:39:42;16.23;;;7.63;;
78053;SDS011;67726;45.636;11.752;2023-07-24T12:42:12;14.75;;;7.70;;
78053;SDS011;67726;45.636;11.752;2023-07-24T12:44:38;15.50;;;7.53;;
78053;SDS011;67726;45.636;11.752;2023-07-24T12:47:04;19.60;;;7.85;;
78053;SDS011;67726;45.636;11.752;2023-07-24T12:49:29;12.93;;;7.25;;
78053;SDS011;67726;45.636;11.752;2023-07-24T12:51:55;16.80;;;7.70;;
78053;SDS011;67726;45.636;11.752;2023-07-24T12:54:21;15.07;;;7.22;;
78053;SDS011;67726;45.636;11.752;2023-07-24T12:56:47;17.77;;;7.75;;
78053;SDS011;67726;45.636;11.752;2023-07-24T12:59:19;17.67;;;7.53;;
78053;SDS011;67726;45.636;11.752;2023-07-24T13:01:45;16.52;;;7.65;;
78053;SDS011;67726;45.636;11.752;2023-07-24T13:04:11;17.98;;;8.68;;
78053;SDS011;67726;45.636;11.752;2023-07-24T13:06:37;15.75;;;7.28;;
78053;SDS011;67726;45.636;11.752;2023-07-24T13:09:03;15.47;;;6.57;;
78053;SDS011;67726;45.636;11.752;2023-07-24T13:11:30;14.00;;;6.32;;
78053;SDS011;67726;45.636;11.752;2023-07-24T13:13:56;14.60;;;6.70;;
78053;SDS011;67726;45.636;11.752;2023-07-24T13:16:22;16.52;;;7.07;;
78053;SDS011;67726;45.636;11.752;2023-07-24T13:18:48;15.20;;;6.13;;
78053;SDS011;67726;45.636;11.752;2023-07-24T13:21:14;13.37;;;6.43;;
78053;SDS011;67726;45.636;11.752;2023-07-24T13:23:40;11.68;;;5.85;;
78053;SDS011;67726;45.636;11.752;2023-07-24T13:26:06;18.55;;;6.82;;
78053;SDS011;67726;45.636;11.752;2023-07-24T13:28:36;13.93;;;6.40;;
78053;SDS011;67726;45.636;11.752;2023-07-24T13:31:18;12.80;;;6.28;;
78053;SDS011;67726;45.636;11.752;2023-07-24T13:33:45;14.50;;;6.15;;
78053;SDS011;67726;45.636;11.752;2023-07-24T13:36:11;13.32;;;6.75;;
78053;SDS011;67726;45.636;11.752;2023-07-24T13:38:37;15.50;;;7.90;;
78053;SDS011;67726;45.636;11.752;2023-07-24T13:41:04;18.87;;;7.67;;
78053;SDS011;67726;45.636;11.752;2023-07-24T13:43:29;15.15;;;7.90;;
78053;SDS011;67726;45.636;11.752;2023-07-24T13:45:56;15.73;;;8.13;;
78053;SDS011;67726;45.636;11.752;2023-07-24T13:48:22;17.87;;;8.00;;
78053;SDS011;67726;45.636;11.752;2023-07-24T13:50:48;16.20;;;8.23;;
78053;SDS011;67726;45.636;11.752;2023-07-24T13:53:14;13.95;;;7.80;;
78053;SDS011;67726;45.636;11.752;2023-07-24T13:55:40;16.00;;;8.27;;
78053;SDS011;67726;45.636;11.752;2023-07-24T13:58:06;17.60;;;8.25;;
78053;SDS011;67726;45.636;11.752;2023-07-24T14:00:31;15.40;;;8.57;;
78053;SDS011;67726;45.636;11.752;2023-07-24T14:02:57;19.10;;;9.63;;
78053;SDS011;67726;45.636;11.752;2023-07-24T14:05:23;16.50;;;8.57;;
78053;SDS011;67726;45.636;11.752;2023-07-24T14:07:49;19.95;;;9.82;;
78053;SDS011;67726;45.636;11.752;2023-07-24T14:10:15;17.40;;;9.57;;
78053;SDS011;67726;45.636;11.752;2023-07-24T14:12:40;21.25;;;12.32;;
78053;SDS011;67726;45.636;11.752;2023-07-24T14:15:06;17.98;;;10.27;;
78053;SDS011;67726;45.636;11.752;2023-07-24T14:17:32;13.90;;;7.60;;
78053;SDS011;67726;45.636;11.752;2023-07-24T14:19:59;14.38;;;8.02;;
78053;SDS011;67726;45.636;11.752;2023-07-24T14:22:26;16.75;;;8.00;;
78053;SDS011;67726;45.636;11.752;2023-07-24T14:24:51;17.10;;;8.70;;
78053;SDS011;67726;45.636;11.752;2023-07-24T14:27:17;17.65;;;10.35;;